createdAt,value
2022-12-06T00:03:59.768Z,53.2
2022-12-06T00:09:18.525Z,53.7
2022-12-06T00:14:37.267Z,53.3
2022-12-06T00:19:55.708Z,53.4
2022-12-06T00:25:14.483Z,53.3
2022-12-06T00:30:32.719Z,53.7
2022-12-06T00:35:51.158Z,53.9
2022-12-06T00:41:09.649Z,53.5
2022-12-06T00:46:28.026Z,53.8
2022-12-06T00:51:46.633Z,53.7
2022-12-06T00:57:04.852Z,54.3
2022-12-06T01:02:23.370Z,54.8
2022-12-06T01:07:41.486Z,54.7
2022-12-06T01:13:00.092Z,54.5
2022-12-06T01:18:18.863Z,54.9
2022-12-06T01:23:37.071Z,55.2
2022-12-06T01:28:55.551Z,55.7
2022-12-06T01:34:13.785Z,55.8
2022-12-06T01:39:31.703Z,54.7
2022-12-06T01:44:49.899Z,55.1
2022-12-06T01:50:08.744Z,55.9
2022-12-06T01:55:27.221Z,55.7
2022-12-06T02:00:45.132Z,55.2
2022-12-06T02:06:03.936Z,56.1
2022-12-06T02:11:22.142Z,55.1
2022-12-06T02:16:40.445Z,55
2022-12-06T02:21:59.071Z,55.3
2022-12-06T02:27:17.248Z,55.4
2022-12-06T02:32:36.025Z,55.8
2022-12-06T02:37:54.256Z,55.4
2022-12-06T02:43:12.474Z,55.4
2022-12-06T02:48:31.234Z,54.6
2022-12-06T02:53:50.034Z,55.6
2022-12-06T02:58:52.602Z,54.9
2022-12-06T03:04:11.353Z,55.6
2022-12-06T03:09:29.588Z,55.7
2022-12-06T03:14:47.757Z,55.5
2022-12-06T03:20:06.258Z,55.5
2022-12-06T03:25:24.492Z,54.4
2022-12-06T03:30:43.230Z,55
2022-12-06T03:36:01.782Z,54.6
2022-12-06T03:41:20.295Z,54.9
2022-12-06T03:46:39.360Z,55.4
2022-12-06T03:51:57.541Z,54.6
2022-12-06T03:57:16.081Z,54.9
2022-12-06T04:02:34.546Z,55.7
2022-12-06T04:07:53.373Z,54.7
2022-12-06T04:13:20.087Z,55.3
2022-12-06T04:18:38.360Z,55.3
2022-12-06T04:23:56.832Z,54.3
2022-12-06T04:29:15.629Z,54.8
2022-12-06T04:34:34.109Z,54.5
2022-12-06T04:39:52.347Z,54.9
2022-12-06T04:45:11.124Z,54.1
2022-12-06T04:50:29.319Z,54.1
2022-12-06T04:55:47.797Z,54
2022-12-06T05:01:06.287Z,54.4
2022-12-06T05:06:24.465Z,54.4
2022-12-06T05:11:42.712Z,54.3
2022-12-06T05:17:00.953Z,54.2
2022-12-06T05:22:19.418Z,53.9
2022-12-06T05:27:37.877Z,53.5
2022-12-06T05:32:57.996Z,53.8
2022-12-06T05:38:16.260Z,50.8
2022-12-06T05:43:34.482Z,50.6
2022-12-06T05:48:52.994Z,50.6
2022-12-06T05:54:11.166Z,51.8
2022-12-06T05:59:29.668Z,52.8
2022-12-06T06:04:48.471Z,52.4
2022-12-06T06:10:06.372Z,52.5
2022-12-06T06:15:24.866Z,53.6
2022-12-06T06:20:43.367Z,53.4
2022-12-06T06:26:02.123Z,53.3
2022-12-06T06:31:20.904Z,52.9
2022-12-06T06:36:46.400Z,52.8
2022-12-06T06:42:05.144Z,53.1
2022-12-06T06:47:23.637Z,52.9
2022-12-06T06:52:42.126Z,52.8
2022-12-06T06:58:00.599Z,53.6
2022-12-06T07:03:19.072Z,53.5
2022-12-06T07:08:37.321Z,53.7
2022-12-06T07:13:55.230Z,52.7
2022-12-06T07:19:13.449Z,53.4
2022-12-06T07:24:33.785Z,53.3
2022-12-06T07:29:55.129Z,52.8
2022-12-06T07:35:13.612Z,53.3
2022-12-06T07:41:05.499Z,52.3
2022-12-06T07:46:23.973Z,53.2
2022-12-06T07:51:42.452Z,52.4
2022-12-06T07:57:01.261Z,53.2
2022-12-06T08:02:19.214Z,52.3
2022-12-06T08:07:37.904Z,52.4
2022-12-06T08:12:57.750Z,52.9
2022-12-06T08:18:16.223Z,52.8
2022-12-06T08:23:35.927Z,53
2022-12-06T08:28:54.716Z,52
2022-12-06T08:34:12.620Z,52.7
2022-12-06T08:39:30.847Z,52.1
2022-12-06T08:44:49.646Z,52.7
2022-12-06T08:50:08.144Z,52.5
2022-12-06T08:55:26.598Z,52.6
2022-12-06T09:00:45.104Z,52.7
2022-12-06T09:05:48.972Z,52
2022-12-06T09:11:07.478Z,52.6
2022-12-06T09:16:26.080Z,52.5
2022-12-06T09:21:44.422Z,52.4
2022-12-06T09:27:02.894Z,52.2
2022-12-06T09:32:21.131Z,51.7
2022-12-06T09:37:39.318Z,51.6
2022-12-06T09:42:57.893Z,52.2
2022-12-06T09:48:16.396Z,51.9
2022-12-06T09:53:34.599Z,51.5
2022-12-06T09:58:53.098Z,51.7
2022-12-06T10:04:11.626Z,52
2022-12-06T10:09:29.797Z,51.4
2022-12-06T10:14:48.038Z,51.4
2022-12-06T10:20:06.268Z,51.9
2022-12-06T10:25:24.902Z,52.1
2022-12-06T10:30:43.273Z,51.3
2022-12-06T10:36:01.934Z,51.1
2022-12-06T10:41:20.448Z,51.2
2022-12-06T10:46:39.020Z,51.2
2022-12-06T10:51:57.615Z,51
2022-12-06T10:57:15.870Z,51.1
2022-12-06T11:02:34.456Z,51.9
2022-12-06T11:07:52.530Z,51
2022-12-06T11:13:10.763Z,51
2022-12-06T11:18:28.984Z,50.7
2022-12-06T11:23:47.475Z,50.9
2022-12-06T11:29:05.797Z,51.7
2022-12-06T11:34:23.998Z,51.6
2022-12-06T11:39:42.260Z,51.4
2022-12-06T11:45:01.010Z,51
2022-12-06T11:50:18.954Z,50.8
2022-12-06T11:55:37.723Z,51.7
2022-12-06T12:00:56.218Z,51
2022-12-06T12:06:14.721Z,51.6
2022-12-06T12:11:33.232Z,51.6
2022-12-06T12:16:51.399Z,51.4
2022-12-06T12:22:09.570Z,51.7
2022-12-06T12:27:29.721Z,51.5
2022-12-06T12:32:47.910Z,50.9
2022-12-06T12:38:06.402Z,51.5
2022-12-06T12:43:24.918Z,50.8
2022-12-06T12:48:27.769Z,51.3
2022-12-06T12:53:46.677Z,50.6
2022-12-06T12:59:05.071Z,50.7
2022-12-06T13:04:23.524Z,51.3
2022-12-06T13:09:42.287Z,50.7
2022-12-06T13:15:01.783Z,51.5
2022-12-06T13:20:20.395Z,51.4
2022-12-06T13:25:38.881Z,50.9
2022-12-06T13:30:56.931Z,51.3
2022-12-06T13:36:15.132Z,50.6
2022-12-06T13:41:33.624Z,51.4
2022-12-06T13:46:51.865Z,51.4
2022-12-06T13:52:10.046Z,51.1
2022-12-06T13:57:28.241Z,50.6
2022-12-06T14:02:47.313Z,50.8
2022-12-06T14:08:05.722Z,50.4
2022-12-06T14:13:24.274Z,50.6
2022-12-06T14:18:42.779Z,50.7
2022-12-06T14:24:01.490Z,50.7
2022-12-06T14:29:19.707Z,50.5
2022-12-06T14:34:38.233Z,51.2
2022-12-06T14:39:56.988Z,50.6
2022-12-06T14:45:15.458Z,50.8
2022-12-06T14:50:33.969Z,51.1
2022-12-06T14:55:52.439Z,51.1
2022-12-06T15:01:10.951Z,51.4
2022-12-06T15:06:29.169Z,51.1
2022-12-06T15:11:47.634Z,51
2022-12-06T15:17:06.141Z,51
2022-12-06T15:22:26.129Z,50.5
2022-12-06T15:27:44.843Z,49.7
2022-12-06T15:33:03.627Z,49.7
2022-12-06T15:38:22.132Z,50.3
2022-12-06T15:43:40.862Z,50.8
2022-12-06T15:48:59.631Z,51
2022-12-06T15:54:18.143Z,50.8
2022-12-06T15:59:36.326Z,50.5
2022-12-06T16:04:54.530Z,50.3
2022-12-06T16:10:23.344Z,50.4
2022-12-06T16:15:45.027Z,50.5
2022-12-06T16:21:03.282Z,51.1
2022-12-06T16:26:22.069Z,50.2
2022-12-06T16:31:40.732Z,51.2
2022-12-06T16:36:58.954Z,50.4
2022-12-06T16:42:17.441Z,50.5
2022-12-06T16:47:35.626Z,51.1
2022-12-06T16:52:54.151Z,50.3
2022-12-06T16:58:12.372Z,50.5
2022-12-06T17:03:31.792Z,50.4
2022-12-06T17:08:49.998Z,50.4
2022-12-06T17:14:08.498Z,50.8
2022-12-06T17:19:29.945Z,50.3
2022-12-06T17:24:47.874Z,50.4
2022-12-06T17:30:06.390Z,50.9
2022-12-06T17:35:24.554Z,50.4
2022-12-06T17:40:43.076Z,50
2022-12-06T17:46:01.499Z,50.1
2022-12-06T17:51:20.400Z,49.7
2022-12-06T17:56:38.900Z,49
2022-12-06T18:02:27.789Z,47.3
2022-12-06T18:07:46.285Z,48.5
2022-12-06T18:13:04.769Z,48.2
2022-12-06T18:18:23.288Z,48.3
2022-12-06T18:24:26.642Z,49.8
2022-12-06T18:29:45.636Z,49.9
2022-12-06T18:35:04.481Z,49.5
2022-12-06T18:40:22.650Z,50.1
2022-12-06T18:45:41.144Z,50.3
2022-12-06T18:50:59.668Z,50
2022-12-06T18:56:18.120Z,49.5
2022-12-06T19:01:36.785Z,50.3
2022-12-06T19:06:55.284Z,49.7
2022-12-06T19:12:13.770Z,50.5
2022-12-06T19:17:32.252Z,50.4
2022-12-06T19:22:50.780Z,49.8
2022-12-06T19:28:13.320Z,49.8
2022-12-06T19:33:31.540Z,50
2022-12-06T19:38:50.031Z,50
2022-12-06T19:44:08.474Z,49.6
2022-12-06T19:49:26.971Z,49.2
2022-12-06T19:54:45.466Z,49.4
2022-12-06T20:00:04.819Z,47
2022-12-06T20:05:23.423Z,47.4
2022-12-06T20:10:41.938Z,48.5
2022-12-06T20:16:00.739Z,49.4
2022-12-06T20:21:19.099Z,49.8
2022-12-06T20:26:37.600Z,50.6
2022-12-06T20:31:56.344Z,50.5
2022-12-06T20:37:14.561Z,49.7
2022-12-06T20:42:33.079Z,50.2
2022-12-06T20:47:50.968Z,51.8
2022-12-06T20:53:09.419Z,52.6
2022-12-06T20:58:28.230Z,52.4
2022-12-06T21:03:46.969Z,53.1
2022-12-06T21:09:05.194Z,52.5
2022-12-06T21:14:23.950Z,52.8
2022-12-06T21:19:42.437Z,53.1
2022-12-06T21:25:00.653Z,53.2
2022-12-06T21:30:19.206Z,52
2022-12-06T21:35:37.659Z,52.6
2022-12-06T21:41:02.431Z,53.1
2022-12-06T21:46:20.945Z,52.3
2022-12-06T21:51:39.499Z,53.1
2022-12-06T21:56:58.279Z,53
2022-12-06T22:02:17.282Z,52.8
2022-12-06T22:07:35.777Z,53.2
2022-12-06T22:12:54.536Z,53.5
2022-12-06T22:18:13.048Z,53.3
2022-12-06T22:23:31.230Z,52.6
2022-12-06T22:28:49.458Z,53.3
2022-12-06T22:34:07.942Z,53.3
2022-12-06T22:39:26.389Z,53.7
2022-12-06T22:44:44.646Z,53.4
2022-12-06T22:50:04.449Z,53.3
2022-12-06T22:55:23.404Z,53.6
2022-12-06T23:00:41.655Z,53.5
2022-12-06T23:05:59.886Z,53.5
2022-12-06T23:11:18.626Z,52.9
2022-12-06T23:16:38.081Z,52.7
2022-12-06T23:21:56.589Z,52.6
2022-12-06T23:27:15.330Z,53.7
2022-12-06T23:32:34.117Z,52.7
2022-12-06T23:37:52.636Z,53.2
2022-12-06T23:43:11.387Z,52.8
2022-12-06T23:48:29.591Z,52.8
2022-12-06T23:53:48.388Z,52.8
2022-12-06T23:59:07.141Z,53.8
